sensor_id;sensor_type;location;lat;lon;timestamp;temperature;humidity
34768;DHT22;21755;43.608;1.236;2023-07-31T00:01:25;20.30;1.00
34768;DHT22;21755;43.608;1.236;2023-07-31T00:03:50;20.60;1.00
34768;DHT22;21755;43.608;1.236;2023-07-31T00:06:16;21.00;1.00
34768;DHT22;21755;43.608;1.236;2023-07-31T00:08:42;21.10;1.00
34768;DHT22;21755;43.608;1.236;2023-07-31T00:11:08;21.20;99.90
34768;DHT22;21755;43.608;1.236;2023-07-31T00:13:34;21.20;1.00
34768;DHT22;21755;43.608;1.236;2023-07-31T00:16:00;21.20;1.00
34768;DHT22;21755;43.608;1.236;2023-07-31T00:18:26;21.30;99.90
34768;DHT22;21755;43.608;1.236;2023-07-31T00:20:52;21.40;1.00
34768;DHT22;21755;43.608;1.236;2023-07-31T00:23:18;21.30;1.00
34768;DHT22;21755;43.608;1.236;2023-07-31T00:25:43;21.70;1.00
34768;DHT22;21755;43.608;1.236;2023-07-31T00:28:10;21.80;99.90
34768;DHT22;21755;43.608;1.236;2023-07-31T00:30:36;21.70;99.90
34768;DHT22;21755;43.608;1.236;2023-07-31T00:33:01;21.80;99.90
34768;DHT22;21755;43.608;1.236;2023-07-31T00:35:27;21.70;99.90
34768;DHT22;21755;43.608;1.236;2023-07-31T00:37:53;21.80;99.90
34768;DHT22;21755;43.608;1.236;2023-07-31T00:40:19;21.70;99.90
34768;DHT22;21755;43.608;1.236;2023-07-31T00:42:45;21.80;99.90
34768;DHT22;21755;43.608;1.236;2023-07-31T00:45:11;21.40;99.90
34768;DHT22;21755;43.608;1.236;2023-07-31T00:47:37;21.40;99.90
34768;DHT22;21755;43.608;1.236;2023-07-31T00:50:03;21.50;99.90
34768;DHT22;21755;43.608;1.236;2023-07-31T00:52:29;21.70;99.90
34768;DHT22;21755;43.608;1.236;2023-07-31T00:54:55;21.50;99.90
34768;DHT22;21755;43.608;1.236;2023-07-31T00:57:21;21.40;99.90
34768;DHT22;21755;43.608;1.236;2023-07-31T00:59:47;21.60;99.90
34768;DHT22;21755;43.608;1.236;2023-07-31T01:02:13;21.70;99.90
34768;DHT22;21755;43.608;1.236;2023-07-31T01:04:41;21.60;99.90
34768;DHT22;21755;43.608;1.236;2023-07-31T01:07:14;21.50;99.90
34768;DHT22;21755;43.608;1.236;2023-07-31T01:10:04;21.60;99.90
34768;DHT22;21755;43.608;1.236;2023-07-31T01:12:34;21.60;99.90
34768;DHT22;21755;43.608;1.236;2023-07-31T01:15:08;21.70;99.90
34768;DHT22;21755;43.608;1.236;2023-07-31T01:17:38;21.30;99.90
34768;DHT22;21755;43.608;1.236;2023-07-31T01:20:08;21.00;99.90
34768;DHT22;21755;43.608;1.236;2023-07-31T01:25:59;20.70;99.90
34768;DHT22;21755;43.608;1.236;2023-07-31T01:31:07;21.10;1.00
34768;DHT22;21755;43.608;1.236;2023-07-31T01:33:35;21.10;99.90
34768;DHT22;21755;43.608;1.236;2023-07-31T01:36:02;21.20;99.90
34768;DHT22;21755;43.608;1.236;2023-07-31T01:38:28;21.30;99.90
34768;DHT22;21755;43.608;1.236;2023-07-31T01:40:54;21.50;99.90
34768;DHT22;21755;43.608;1.236;2023-07-31T01:43:20;21.60;99.90
34768;DHT22;21755;43.608;1.236;2023-07-31T01:45:46;21.60;99.90
34768;DHT22;21755;43.608;1.236;2023-07-31T01:48:12;21.80;99.90
34768;DHT22;21755;43.608;1.236;2023-07-31T01:50:37;21.80;99.90
34768;DHT22;21755;43.608;1.236;2023-07-31T01:53:03;21.50;99.90
34768;DHT22;21755;43.608;1.236;2023-07-31T01:55:29;21.60;99.90
34768;DHT22;21755;43.608;1.236;2023-07-31T01:57:55;21.70;99.90
34768;DHT22;21755;43.608;1.236;2023-07-31T02:00:21;21.90;99.90
34768;DHT22;21755;43.608;1.236;2023-07-31T02:02:47;21.70;99.90
34768;DHT22;21755;43.608;1.236;2023-07-31T02:05:13;21.80;99.90
34768;DHT22;21755;43.608;1.236;2023-07-31T02:07:39;21.80;99.90
34768;DHT22;21755;43.608;1.236;2023-07-31T02:10:05;21.80;99.90
34768;DHT22;21755;43.608;1.236;2023-07-31T02:12:31;21.80;99.90
34768;DHT22;21755;43.608;1.236;2023-07-31T02:14:59;21.60;99.90
34768;DHT22;21755;43.608;1.236;2023-07-31T02:17:25;21.50;99.90
34768;DHT22;21755;43.608;1.236;2023-07-31T02:19:50;21.40;99.90
34768;DHT22;21755;43.608;1.236;2023-07-31T02:22:16;21.20;99.90
34768;DHT22;21755;43.608;1.236;2023-07-31T02:24:42;21.40;99.90
34768;DHT22;21755;43.608;1.236;2023-07-31T02:27:08;21.10;99.90
34768;DHT22;21755;43.608;1.236;2023-07-31T02:29:34;21.20;99.90
34768;DHT22;21755;43.608;1.236;2023-07-31T02:32:00;21.20;99.90
34768;DHT22;21755;43.608;1.236;2023-07-31T02:34:26;21.10;99.90
34768;DHT22;21755;43.608;1.236;2023-07-31T02:36:52;21.20;99.90
34768;DHT22;21755;43.608;1.236;2023-07-31T02:39:18;21.20;99.90
34768;DHT22;21755;43.608;1.236;2023-07-31T02:41:43;21.10;99.90
34768;DHT22;21755;43.608;1.236;2023-07-31T02:44:09;20.80;1.00
34768;DHT22;21755;43.608;1.236;2023-07-31T02:46:36;20.30;99.90
34768;DHT22;21755;43.608;1.236;2023-07-31T02:49:01;20.30;99.90
34768;DHT22;21755;43.608;1.236;2023-07-31T02:51:27;20.20;1.00
34768;DHT22;21755;43.608;1.236;2023-07-31T02:53:53;19.60;1.00
34768;DHT22;21755;43.608;1.236;2023-07-31T02:56:19;19.70;1.00
34768;DHT22;21755;43.608;1.236;2023-07-31T03:02:47;19.30;1.00
34768;DHT22;21755;43.608;1.236;2023-07-31T03:05:13;19.80;1.00
34768;DHT22;21755;43.608;1.236;2023-07-31T03:07:39;19.80;1.00
34768;DHT22;21755;43.608;1.236;2023-07-31T03:10:05;19.40;1.00
34768;DHT22;21755;43.608;1.236;2023-07-31T03:12:31;19.40;1.00
34768;DHT22;21755;43.608;1.236;2023-07-31T03:14:57;19.30;1.00
34768;DHT22;21755;43.608;1.236;2023-07-31T03:17:23;19.20;1.00
34768;DHT22;21755;43.608;1.236;2023-07-31T03:19:49;19.10;1.00
34768;DHT22;21755;43.608;1.236;2023-07-31T03:22:15;19.40;1.00
34768;DHT22;21755;43.608;1.236;2023-07-31T03:24:41;19.20;1.00
34768;DHT22;21755;43.608;1.236;2023-07-31T03:27:07;19.50;1.00
34768;DHT22;21755;43.608;1.236;2023-07-31T03:29:33;19.60;99.90
34768;DHT22;21755;43.608;1.236;2023-07-31T03:31:58;19.50;1.00
34768;DHT22;21755;43.608;1.236;2023-07-31T03:34:24;20.00;1.00
34768;DHT22;21755;43.608;1.236;2023-07-31T03:36:50;19.90;1.00
34768;DHT22;21755;43.608;1.236;2023-07-31T03:39:16;19.60;1.00
34768;DHT22;21755;43.608;1.236;2023-07-31T03:41:42;20.00;1.00
34768;DHT22;21755;43.608;1.236;2023-07-31T03:44:08;19.80;99.90
34768;DHT22;21755;43.608;1.236;2023-07-31T03:46:34;19.80;1.00
34768;DHT22;21755;43.608;1.236;2023-07-31T03:49:01;19.50;1.00
34768;DHT22;21755;43.608;1.236;2023-07-31T03:51:27;19.30;1.00
34768;DHT22;21755;43.608;1.236;2023-07-31T03:53:53;19.50;1.00
34768;DHT22;21755;43.608;1.236;2023-07-31T03:56:19;19.70;1.00
34768;DHT22;21755;43.608;1.236;2023-07-31T03:58:45;19.90;1.00
34768;DHT22;21755;43.608;1.236;2023-07-31T04:01:11;20.00;99.90
34768;DHT22;21755;43.608;1.236;2023-07-31T04:03:37;19.80;1.00
34768;DHT22;21755;43.608;1.236;2023-07-31T04:06:02;20.00;1.00
34768;DHT22;21755;43.608;1.236;2023-07-31T04:08:28;20.40;1.00
34768;DHT22;21755;43.608;1.236;2023-07-31T04:10:54;20.60;99.90
34768;DHT22;21755;43.608;1.236;2023-07-31T04:13:22;20.80;99.90
34768;DHT22;21755;43.608;1.236;2023-07-31T04:15:49;20.60;99.90
34768;DHT22;21755;43.608;1.236;2023-07-31T04:18:16;20.30;99.90
34768;DHT22;21755;43.608;1.236;2023-07-31T04:20:42;19.90;99.90
34768;DHT22;21755;43.608;1.236;2023-07-31T04:23:08;19.70;99.90
34768;DHT22;21755;43.608;1.236;2023-07-31T04:25:34;19.50;99.90
34768;DHT22;21755;43.608;1.236;2023-07-31T04:28:00;19.40;1.00
34768;DHT22;21755;43.608;1.236;2023-07-31T04:30:26;19.50;1.00
34768;DHT22;21755;43.608;1.236;2023-07-31T04:32:52;20.00;1.00
34768;DHT22;21755;43.608;1.236;2023-07-31T04:35:18;19.90;99.90
34768;DHT22;21755;43.608;1.236;2023-07-31T04:37:44;19.60;1.00
34768;DHT22;21755;43.608;1.236;2023-07-31T04:40:15;19.70;1.00
34768;DHT22;21755;43.608;1.236;2023-07-31T04:42:41;19.50;1.00
34768;DHT22;21755;43.608;1.236;2023-07-31T04:45:08;19.40;1.00
34768;DHT22;21755;43.608;1.236;2023-07-31T04:47:34;19.30;1.00
34768;DHT22;21755;43.608;1.236;2023-07-31T04:50:00;19.80;99.90
34768;DHT22;21755;43.608;1.236;2023-07-31T04:52:26;19.40;99.90
34768;DHT22;21755;43.608;1.236;2023-07-31T04:54:52;19.60;1.00
34768;DHT22;21755;43.608;1.236;2023-07-31T04:57:18;19.50;99.90
34768;DHT22;21755;43.608;1.236;2023-07-31T04:59:43;19.80;1.00
34768;DHT22;21755;43.608;1.236;2023-07-31T05:02:12;20.30;99.90
34768;DHT22;21755;43.608;1.236;2023-07-31T05:04:39;20.40;99.90
34768;DHT22;21755;43.608;1.236;2023-07-31T05:07:05;20.70;99.90
34768;DHT22;21755;43.608;1.236;2023-07-31T05:09:31;20.70;99.90
34768;DHT22;21755;43.608;1.236;2023-07-31T05:11:57;20.40;99.90
34768;DHT22;21755;43.608;1.236;2023-07-31T05:14:22;20.80;99.90
34768;DHT22;21755;43.608;1.236;2023-07-31T05:16:48;21.00;59.70
34768;DHT22;21755;43.608;1.236;2023-07-31T05:19:14;21.10;99.90
34768;DHT22;21755;43.608;1.236;2023-07-31T05:21:40;21.10;1.00
34768;DHT22;21755;43.608;1.236;2023-07-31T05:24:06;20.70;99.90
34768;DHT22;21755;43.608;1.236;2023-07-31T05:26:32;20.10;99.90
34768;DHT22;21755;43.608;1.236;2023-07-31T05:28:58;20.10;67.60
34768;DHT22;21755;43.608;1.236;2023-07-31T05:31:24;19.90;99.90
34768;DHT22;21755;43.608;1.236;2023-07-31T05:33:50;19.80;99.90
34768;DHT22;21755;43.608;1.236;2023-07-31T05:36:17;20.00;99.90
34768;DHT22;21755;43.608;1.236;2023-07-31T05:38:43;19.80;99.90
34768;DHT22;21755;43.608;1.236;2023-07-31T05:41:12;19.90;99.90
34768;DHT22;21755;43.608;1.236;2023-07-31T05:43:38;19.80;99.90
34768;DHT22;21755;43.608;1.236;2023-07-31T05:46:04;19.90;99.90
34768;DHT22;21755;43.608;1.236;2023-07-31T05:48:32;20.00;99.90
34768;DHT22;21755;43.608;1.236;2023-07-31T05:50:59;20.60;99.90
34768;DHT22;21755;43.608;1.236;2023-07-31T05:53:25;20.50;99.90
34768;DHT22;21755;43.608;1.236;2023-07-31T05:55:51;20.40;71.00
34768;DHT22;21755;43.608;1.236;2023-07-31T05:58:17;20.00;1.00
34768;DHT22;21755;43.608;1.236;2023-07-31T06:00:43;19.80;99.90
34768;DHT22;21755;43.608;1.236;2023-07-31T06:03:09;19.70;99.90
34768;DHT22;21755;43.608;1.236;2023-07-31T06:05:35;19.60;99.90
34768;DHT22;21755;43.608;1.236;2023-07-31T06:08:01;19.50;1.00
34768;DHT22;21755;43.608;1.236;2023-07-31T06:10:27;19.90;99.90
34768;DHT22;21755;43.608;1.236;2023-07-31T06:12:53;20.10;1.00
34768;DHT22;21755;43.608;1.236;2023-07-31T06:15:20;19.80;99.90
34768;DHT22;21755;43.608;1.236;2023-07-31T06:17:46;19.70;99.90
34768;DHT22;21755;43.608;1.236;2023-07-31T06:20:12;19.70;99.90
34768;DHT22;21755;43.608;1.236;2023-07-31T06:22:37;20.10;99.90
34768;DHT22;21755;43.608;1.236;2023-07-31T06:25:04;19.50;99.90
34768;DHT22;21755;43.608;1.236;2023-07-31T06:27:30;19.80;99.90
34768;DHT22;21755;43.608;1.236;2023-07-31T06:29:55;19.90;99.90
34768;DHT22;21755;43.608;1.236;2023-07-31T06:32:21;19.70;68.50
34768;DHT22;21755;43.608;1.236;2023-07-31T06:34:47;19.30;99.90
34768;DHT22;21755;43.608;1.236;2023-07-31T06:37:13;19.40;99.90
34768;DHT22;21755;43.608;1.236;2023-07-31T06:39:39;19.90;99.90
34768;DHT22;21755;43.608;1.236;2023-07-31T06:42:05;20.00;1.00
34768;DHT22;21755;43.608;1.236;2023-07-31T06:44:31;20.00;99.90
34768;DHT22;21755;43.608;1.236;2023-07-31T06:46:57;19.90;99.90
34768;DHT22;21755;43.608;1.236;2023-07-31T06:49:23;19.70;99.90
34768;DHT22;21755;43.608;1.236;2023-07-31T06:51:49;19.60;18.20
34768;DHT22;21755;43.608;1.236;2023-07-31T06:54:15;19.90;1.00
34768;DHT22;21755;43.608;1.236;2023-07-31T06:56:40;19.90;1.00
34768;DHT22;21755;43.608;1.236;2023-07-31T06:59:07;19.90;99.90
34768;DHT22;21755;43.608;1.236;2023-07-31T07:01:33;19.80;99.90
34768;DHT22;21755;43.608;1.236;2023-07-31T07:03:59;19.90;99.90
34768;DHT22;21755;43.608;1.236;2023-07-31T07:06:25;20.00;99.90
34768;DHT22;21755;43.608;1.236;2023-07-31T07:09:14;20.00;1.00
34768;DHT22;21755;43.608;1.236;2023-07-31T07:11:40;20.20;1.00
34768;DHT22;21755;43.608;1.236;2023-07-31T07:14:06;20.30;99.90
34768;DHT22;21755;43.608;1.236;2023-07-31T07:16:32;20.50;99.90
34768;DHT22;21755;43.608;1.236;2023-07-31T07:18:58;20.60;69.90
34768;DHT22;21755;43.608;1.236;2023-07-31T07:21:24;20.50;99.90
34768;DHT22;21755;43.608;1.236;2023-07-31T07:23:50;20.50;98.50
34768;DHT22;21755;43.608;1.236;2023-07-31T07:26:16;20.70;1.00
34768;DHT22;21755;43.608;1.236;2023-07-31T07:28:42;20.90;1.00
34768;DHT22;21755;43.608;1.236;2023-07-31T07:31:08;20.90;99.90
34768;DHT22;21755;43.608;1.236;2023-07-31T07:33:34;20.90;99.90
34768;DHT22;21755;43.608;1.236;2023-07-31T07:36:01;20.90;98.60
34768;DHT22;21755;43.608;1.236;2023-07-31T07:38:27;21.10;99.90
34768;DHT22;21755;43.608;1.236;2023-07-31T07:40:54;21.20;99.90
34768;DHT22;21755;43.608;1.236;2023-07-31T07:43:21;21.20;99.90
34768;DHT22;21755;43.608;1.236;2023-07-31T07:45:47;21.30;99.90
34768;DHT22;21755;43.608;1.236;2023-07-31T07:48:13;21.40;1.00
34768;DHT22;21755;43.608;1.236;2023-07-31T07:50:38;21.50;1.00
34768;DHT22;21755;43.608;1.236;2023-07-31T07:53:05;21.50;99.90
34768;DHT22;21755;43.608;1.236;2023-07-31T07:55:31;21.40;99.90
34768;DHT22;21755;43.608;1.236;2023-07-31T07:57:56;21.50;99.90
34768;DHT22;21755;43.608;1.236;2023-07-31T08:00:22;21.70;99.90
34768;DHT22;21755;43.608;1.236;2023-07-31T08:02:48;21.80;99.90
34768;DHT22;21755;43.608;1.236;2023-07-31T08:05:14;21.80;1.00
34768;DHT22;21755;43.608;1.236;2023-07-31T08:07:40;21.80;99.90
34768;DHT22;21755;43.608;1.236;2023-07-31T08:10:06;21.90;1.00
34768;DHT22;21755;43.608;1.236;2023-07-31T08:12:32;22.00;1.00
34768;DHT22;21755;43.608;1.236;2023-07-31T08:14:58;22.10;1.00
34768;DHT22;21755;43.608;1.236;2023-07-31T08:17:25;22.20;1.00
34768;DHT22;21755;43.608;1.236;2023-07-31T08:19:51;22.30;1.00
34768;DHT22;21755;43.608;1.236;2023-07-31T08:22:17;22.30;99.90
34768;DHT22;21755;43.608;1.236;2023-07-31T08:24:43;22.40;99.90
34768;DHT22;21755;43.608;1.236;2023-07-31T08:27:09;22.40;99.90
34768;DHT22;21755;43.608;1.236;2023-07-31T08:29:35;22.50;99.90
34768;DHT22;21755;43.608;1.236;2023-07-31T08:32:00;22.60;99.90
34768;DHT22;21755;43.608;1.236;2023-07-31T08:34:26;22.70;99.90
34768;DHT22;21755;43.608;1.236;2023-07-31T08:36:52;22.80;96.10
34768;DHT22;21755;43.608;1.236;2023-07-31T08:39:18;22.80;1.00
34768;DHT22;21755;43.608;1.236;2023-07-31T08:41:44;22.90;1.00
34768;DHT22;21755;43.608;1.236;2023-07-31T08:44:10;23.10;22.40
34768;DHT22;21755;43.608;1.236;2023-07-31T08:46:38;23.30;1.00
34768;DHT22;21755;43.608;1.236;2023-07-31T08:49:05;23.20;1.00
34768;DHT22;21755;43.608;1.236;2023-07-31T08:51:34;23.40;99.90
34768;DHT22;21755;43.608;1.236;2023-07-31T08:54:01;23.30;99.90
34768;DHT22;21755;43.608;1.236;2023-07-31T08:56:29;23.50;99.90
34768;DHT22;21755;43.608;1.236;2023-07-31T08:58:58;23.50;99.90
34768;DHT22;21755;43.608;1.236;2023-07-31T09:01:26;23.60;99.90
34768;DHT22;21755;43.608;1.236;2023-07-31T09:03:54;23.60;99.90
34768;DHT22;21755;43.608;1.236;2023-07-31T09:06:21;23.80;99.90
34768;DHT22;21755;43.608;1.236;2023-07-31T09:08:49;23.70;99.90
34768;DHT22;21755;43.608;1.236;2023-07-31T09:11:15;23.70;99.90
34768;DHT22;21755;43.608;1.236;2023-07-31T09:13:42;23.90;99.90
34768;DHT22;21755;43.608;1.236;2023-07-31T09:16:09;24.00;99.90
34768;DHT22;21755;43.608;1.236;2023-07-31T09:18:54;24.20;99.90
34768;DHT22;21755;43.608;1.236;2023-07-31T09:21:22;24.20;99.90
34768;DHT22;21755;43.608;1.236;2023-07-31T09:23:49;24.40;99.90
34768;DHT22;21755;43.608;1.236;2023-07-31T09:26:35;24.20;99.90
34768;DHT22;21755;43.608;1.236;2023-07-31T09:29:05;24.30;99.90
34768;DHT22;21755;43.608;1.236;2023-07-31T09:31:43;24.40;99.90
34768;DHT22;21755;43.608;1.236;2023-07-31T09:37:32;24.60;99.90
34768;DHT22;21755;43.608;1.236;2023-07-31T09:40:30;24.60;99.90
34768;DHT22;21755;43.608;1.236;2023-07-31T09:42:58;24.50;99.90
34768;DHT22;21755;43.608;1.236;2023-07-31T09:45:24;24.80;99.90
34768;DHT22;21755;43.608;1.236;2023-07-31T09:47:51;25.00;99.90
34768;DHT22;21755;43.608;1.236;2023-07-31T09:50:17;24.80;67.90
34768;DHT22;21755;43.608;1.236;2023-07-31T09:52:43;24.90;80.90
34768;DHT22;21755;43.608;1.236;2023-07-31T09:55:10;25.00;50.20
34768;DHT22;21755;43.608;1.236;2023-07-31T09:57:40;25.10;82.90
34768;DHT22;21755;43.608;1.236;2023-07-31T10:00:07;25.10;45.30
34768;DHT22;21755;43.608;1.236;2023-07-31T10:02:35;25.20;55.60
34768;DHT22;21755;43.608;1.236;2023-07-31T10:05:03;25.30;43.00
34768;DHT22;21755;43.608;1.236;2023-07-31T10:07:31;25.50;40.10
34768;DHT22;21755;43.608;1.236;2023-07-31T10:10:00;25.60;11.90
34768;DHT22;21755;43.608;1.236;2023-07-31T10:12:27;25.70;36.40
34768;DHT22;21755;43.608;1.236;2023-07-31T10:14:56;25.30;1.00
34768;DHT22;21755;43.608;1.236;2023-07-31T10:17:23;25.30;7.50
34768;DHT22;21755;43.608;1.236;2023-07-31T10:19:50;25.50;1.00
34768;DHT22;21755;43.608;1.236;2023-07-31T10:22:16;25.60;3.80
34768;DHT22;21755;43.608;1.236;2023-07-31T10:24:45;25.70;1.00
34768;DHT22;21755;43.608;1.236;2023-07-31T10:27:11;25.60;1.00
34768;DHT22;21755;43.608;1.236;2023-07-31T10:29:38;25.70;1.00
34768;DHT22;21755;43.608;1.236;2023-07-31T10:32:07;25.70;1.00
34768;DHT22;21755;43.608;1.236;2023-07-31T10:34:35;25.90;1.00
34768;DHT22;21755;43.608;1.236;2023-07-31T10:37:30;25.70;1.00
34768;DHT22;21755;43.608;1.236;2023-07-31T10:42:31;25.70;1.00
34768;DHT22;21755;43.608;1.236;2023-07-31T10:45:00;26.00;1.00
34768;DHT22;21755;43.608;1.236;2023-07-31T10:47:26;26.10;1.00
34768;DHT22;21755;43.608;1.236;2023-07-31T10:49:52;26.30;1.00
34768;DHT22;21755;43.608;1.236;2023-07-31T10:52:21;26.20;1.00
34768;DHT22;21755;43.608;1.236;2023-07-31T10:57:58;26.50;1.00
34768;DHT22;21755;43.608;1.236;2023-07-31T11:00:30;26.40;1.00
34768;DHT22;21755;43.608;1.236;2023-07-31T11:03:01;26.40;1.00
34768;DHT22;21755;43.608;1.236;2023-07-31T11:10:43;26.30;1.00
34768;DHT22;21755;43.608;1.236;2023-07-31T11:13:09;26.40;1.00
34768;DHT22;21755;43.608;1.236;2023-07-31T11:15:35;26.50;1.00
34768;DHT22;21755;43.608;1.236;2023-07-31T11:18:02;26.60;1.00
34768;DHT22;21755;43.608;1.236;2023-07-31T11:20:32;26.70;1.00
34768;DHT22;21755;43.608;1.236;2023-07-31T11:23:03;27.00;1.00
34768;DHT22;21755;43.608;1.236;2023-07-31T11:25:31;26.90;99.90
34768;DHT22;21755;43.608;1.236;2023-07-31T11:28:11;27.30;1.00
34768;DHT22;21755;43.608;1.236;2023-07-31T11:30:38;27.20;99.90
34768;DHT22;21755;43.608;1.236;2023-07-31T11:33:07;26.90;99.90
34768;DHT22;21755;43.608;1.236;2023-07-31T11:35:35;27.20;99.90
34768;DHT22;21755;43.608;1.236;2023-07-31T11:38:02;27.40;99.90
34768;DHT22;21755;43.608;1.236;2023-07-31T11:40:28;27.60;99.90
34768;DHT22;21755;43.608;1.236;2023-07-31T11:42:59;27.70;99.90
34768;DHT22;21755;43.608;1.236;2023-07-31T11:45:30;27.60;99.90
34768;DHT22;21755;43.608;1.236;2023-07-31T11:47:57;27.30;99.90
34768;DHT22;21755;43.608;1.236;2023-07-31T11:50:23;27.40;99.90
34768;DHT22;21755;43.608;1.236;2023-07-31T11:53:02;27.40;99.90
34768;DHT22;21755;43.608;1.236;2023-07-31T11:55:30;27.70;99.90
34768;DHT22;21755;43.608;1.236;2023-07-31T11:57:57;27.70;99.90
34768;DHT22;21755;43.608;1.236;2023-07-31T12:00:24;27.80;99.90
34768;DHT22;21755;43.608;1.236;2023-07-31T12:02:51;28.00;99.90
34768;DHT22;21755;43.608;1.236;2023-07-31T12:05:17;27.90;99.90
34768;DHT22;21755;43.608;1.236;2023-07-31T12:07:48;27.60;99.90
34768;DHT22;21755;43.608;1.236;2023-07-31T12:10:31;27.80;99.90
34768;DHT22;21755;43.608;1.236;2023-07-31T12:13:06;27.70;99.90
34768;DHT22;21755;43.608;1.236;2023-07-31T12:15:37;27.60;99.90
34768;DHT22;21755;43.608;1.236;2023-07-31T12:18:13;27.90;99.90
34768;DHT22;21755;43.608;1.236;2023-07-31T12:20:47;28.10;99.90
34768;DHT22;21755;43.608;1.236;2023-07-31T12:23:19;27.90;99.90
34768;DHT22;21755;43.608;1.236;2023-07-31T12:26:10;28.10;99.90
34768;DHT22;21755;43.608;1.236;2023-07-31T12:28:47;28.30;99.90
34768;DHT22;21755;43.608;1.236;2023-07-31T12:31:22;28.30;99.90
34768;DHT22;21755;43.608;1.236;2023-07-31T12:33:49;28.30;99.90
34768;DHT22;21755;43.608;1.236;2023-07-31T12:36:23;28.20;99.90
34768;DHT22;21755;43.608;1.236;2023-07-31T12:38:50;28.00;99.90
34768;DHT22;21755;43.608;1.236;2023-07-31T12:41:16;28.10;99.90
34768;DHT22;21755;43.608;1.236;2023-07-31T12:43:43;28.20;99.90
34768;DHT22;21755;43.608;1.236;2023-07-31T12:46:10;28.20;99.90
34768;DHT22;21755;43.608;1.236;2023-07-31T12:48:37;28.30;99.90
34768;DHT22;21755;43.608;1.236;2023-07-31T12:51:03;28.30;99.90
34768;DHT22;21755;43.608;1.236;2023-07-31T12:53:29;28.50;99.90
34768;DHT22;21755;43.608;1.236;2023-07-31T12:55:56;28.40;99.90
34768;DHT22;21755;43.608;1.236;2023-07-31T12:58:22;28.40;99.90
34768;DHT22;21755;43.608;1.236;2023-07-31T13:00:48;28.60;99.90
34768;DHT22;21755;43.608;1.236;2023-07-31T13:03:13;28.60;99.90
34768;DHT22;21755;43.608;1.236;2023-07-31T13:05:40;28.70;99.90
34768;DHT22;21755;43.608;1.236;2023-07-31T13:08:06;28.60;99.90
34768;DHT22;21755;43.608;1.236;2023-07-31T13:10:32;28.70;99.90
34768;DHT22;21755;43.608;1.236;2023-07-31T13:12:58;28.70;99.90
34768;DHT22;21755;43.608;1.236;2023-07-31T13:15:24;28.70;99.90
34768;DHT22;21755;43.608;1.236;2023-07-31T13:17:50;28.80;99.90
34768;DHT22;21755;43.608;1.236;2023-07-31T13:20:16;28.70;99.90
34768;DHT22;21755;43.608;1.236;2023-07-31T13:22:41;28.80;99.90
34768;DHT22;21755;43.608;1.236;2023-07-31T13:25:08;29.00;99.90
34768;DHT22;21755;43.608;1.236;2023-07-31T13:27:34;29.10;99.90
34768;DHT22;21755;43.608;1.236;2023-07-31T13:30:00;28.90;99.90
34768;DHT22;21755;43.608;1.236;2023-07-31T13:32:26;29.20;99.90
34768;DHT22;21755;43.608;1.236;2023-07-31T13:34:52;29.30;99.90
34768;DHT22;21755;43.608;1.236;2023-07-31T13:37:18;29.10;99.90
34768;DHT22;21755;43.608;1.236;2023-07-31T13:39:44;29.00;99.90
34768;DHT22;21755;43.608;1.236;2023-07-31T13:42:10;29.10;99.90
34768;DHT22;21755;43.608;1.236;2023-07-31T13:44:43;29.20;99.90
34768;DHT22;21755;43.608;1.236;2023-07-31T13:47:10;29.40;99.90
34768;DHT22;21755;43.608;1.236;2023-07-31T13:49:37;29.20;99.90
34768;DHT22;21755;43.608;1.236;2023-07-31T13:52:04;29.20;99.90
34768;DHT22;21755;43.608;1.236;2023-07-31T13:54:30;29.40;99.90
34768;DHT22;21755;43.608;1.236;2023-07-31T13:56:56;29.70;99.90
34768;DHT22;21755;43.608;1.236;2023-07-31T13:59:22;29.60;99.90
34768;DHT22;21755;43.608;1.236;2023-07-31T14:01:48;29.60;99.90
34768;DHT22;21755;43.608;1.236;2023-07-31T14:04:15;29.60;99.90
34768;DHT22;21755;43.608;1.236;2023-07-31T14:06:41;29.40;99.90
34768;DHT22;21755;43.608;1.236;2023-07-31T14:09:07;29.50;99.90
34768;DHT22;21755;43.608;1.236;2023-07-31T14:11:33;29.50;99.90
34768;DHT22;21755;43.608;1.236;2023-07-31T14:14:00;29.40;99.90
34768;DHT22;21755;43.608;1.236;2023-07-31T14:16:27;29.50;99.90
34768;DHT22;21755;43.608;1.236;2023-07-31T14:18:54;29.60;99.90
34768;DHT22;21755;43.608;1.236;2023-07-31T14:21:20;29.60;99.90
34768;DHT22;21755;43.608;1.236;2023-07-31T14:23:46;29.60;99.90
34768;DHT22;21755;43.608;1.236;2023-07-31T14:26:12;29.60;99.90
34768;DHT22;21755;43.608;1.236;2023-07-31T14:28:38;29.60;99.90
34768;DHT22;21755;43.608;1.236;2023-07-31T14:31:04;29.30;99.90
34768;DHT22;21755;43.608;1.236;2023-07-31T14:33:30;29.30;99.90
34768;DHT22;21755;43.608;1.236;2023-07-31T14:35:56;29.40;99.90
34768;DHT22;21755;43.608;1.236;2023-07-31T14:38:22;29.50;99.90
34768;DHT22;21755;43.608;1.236;2023-07-31T14:40:48;29.60;99.90
34768;DHT22;21755;43.608;1.236;2023-07-31T14:43:14;29.50;99.90
34768;DHT22;21755;43.608;1.236;2023-07-31T14:45:43;29.60;99.90
34768;DHT22;21755;43.608;1.236;2023-07-31T14:48:09;29.50;99.90
34768;DHT22;21755;43.608;1.236;2023-07-31T14:50:35;29.50;99.90
34768;DHT22;21755;43.608;1.236;2023-07-31T14:53:01;29.50;99.90
34768;DHT22;21755;43.608;1.236;2023-07-31T14:55:27;29.30;99.90
34768;DHT22;21755;43.608;1.236;2023-07-31T14:57:52;29.50;99.90
34768;DHT22;21755;43.608;1.236;2023-07-31T15:00:18;29.70;99.90
34768;DHT22;21755;43.608;1.236;2023-07-31T15:02:45;29.60;99.90
34768;DHT22;21755;43.608;1.236;2023-07-31T15:05:11;29.60;99.90
34768;DHT22;21755;43.608;1.236;2023-07-31T15:07:37;29.50;99.90
34768;DHT22;21755;43.608;1.236;2023-07-31T15:10:03;29.70;99.90
34768;DHT22;21755;43.608;1.236;2023-07-31T15:12:29;29.70;99.90
34768;DHT22;21755;43.608;1.236;2023-07-31T15:14:55;29.70;99.90
34768;DHT22;21755;43.608;1.236;2023-07-31T15:17:21;29.40;99.90
34768;DHT22;21755;43.608;1.236;2023-07-31T15:19:47;29.50;99.90
34768;DHT22;21755;43.608;1.236;2023-07-31T15:22:13;29.40;99.90
34768;DHT22;21755;43.608;1.236;2023-07-31T15:24:39;29.40;99.90
34768;DHT22;21755;43.608;1.236;2023-07-31T15:27:05;29.40;99.90
34768;DHT22;21755;43.608;1.236;2023-07-31T15:29:34;29.50;99.90
34768;DHT22;21755;43.608;1.236;2023-07-31T15:32:04;29.60;99.90
34768;DHT22;21755;43.608;1.236;2023-07-31T15:34:30;29.60;99.90
34768;DHT22;21755;43.608;1.236;2023-07-31T15:36:56;29.50;99.90
34768;DHT22;21755;43.608;1.236;2023-07-31T15:39:22;29.60;99.90
34768;DHT22;21755;43.608;1.236;2023-07-31T15:41:48;29.70;99.90
34768;DHT22;21755;43.608;1.236;2023-07-31T15:44:13;29.70;99.90
34768;DHT22;21755;43.608;1.236;2023-07-31T15:46:39;29.70;99.90
34768;DHT22;21755;43.608;1.236;2023-07-31T15:49:05;29.80;99.90
34768;DHT22;21755;43.608;1.236;2023-07-31T15:51:32;29.70;99.90
34768;DHT22;21755;43.608;1.236;2023-07-31T15:53:58;29.70;99.90
34768;DHT22;21755;43.608;1.236;2023-07-31T15:56:24;29.60;99.90
34768;DHT22;21755;43.608;1.236;2023-07-31T15:58:50;29.70;99.90